createdAt,value
2023-02-08T00:01:19.739Z,51.43
2023-02-08T00:03:48.215Z,44.20
2023-02-08T00:06:16.973Z,45.70
2023-02-08T00:08:45.832Z,47.07
2023-02-08T00:11:14.476Z,44.93
2023-02-08T00:13:43.081Z,46.73
2023-02-08T00:16:14.255Z,42.67
2023-02-08T00:18:42.868Z,44.60
2023-02-08T00:21:11.689Z,46.17
2023-02-08T00:23:40.379Z,45.20
2023-02-08T00:26:09.142Z,44.93
2023-02-08T00:28:37.702Z,45.00
2023-02-08T00:31:06.833Z,46.50
2023-02-08T00:33:37.530Z,44.77
2023-02-08T00:36:07.837Z,44.17
2023-02-08T00:38:36.497Z,43.70
2023-02-08T00:41:05.244Z,44.00
2023-02-08T00:43:33.340Z,44.17
2023-02-08T00:46:01.900Z,44.67
2023-02-08T00:48:30.114Z,45.13
2023-02-08T00:51:01.019Z,42.50
2023-02-08T00:53:29.237Z,42.67
2023-02-08T00:55:57.818Z,43.60
2023-02-08T00:58:26.819Z,44.40
2023-02-08T01:00:55.243Z,44.73
2023-02-08T01:03:24.835Z,45.60
2023-02-08T01:05:52.954Z,45.00
2023-02-08T01:08:22.549Z,44.67
2023-02-08T01:10:50.585Z,45.53
2023-02-08T01:13:18.669Z,45.77
2023-02-08T01:15:46.739Z,46.23
2023-02-08T01:18:14.827Z,44.87
2023-02-08T01:20:43.034Z,44.63
2023-02-08T01:23:11.067Z,45.83
2023-02-08T01:25:41.922Z,45.43
2023-02-08T01:28:09.969Z,45.73
2023-02-08T01:30:39.308Z,45.70
2023-02-08T01:33:07.561Z,46.07
2023-02-08T01:35:35.593Z,45.03
2023-02-08T01:38:05.807Z,45.13
2023-02-08T01:40:34.136Z,43.77
2023-02-08T01:43:03.696Z,46.20
2023-02-08T01:45:33.481Z,45.10
2023-02-08T01:48:10.121Z,45.17
2023-02-08T01:50:46.332Z,46.13
2023-02-08T01:53:14.817Z,46.40
2023-02-08T01:55:47.714Z,44.47
2023-02-08T01:58:20.231Z,45.70
2023-02-08T02:00:49.157Z,44.07
2023-02-08T02:03:18.640Z,45.73
2023-02-08T02:05:53.493Z,43.33
2023-02-08T02:08:21.709Z,44.00
2023-02-08T02:10:50.837Z,45.27
2023-02-08T02:13:23.577Z,44.30
2023-02-08T02:15:52.861Z,46.43
2023-02-08T02:18:26.237Z,45.17
2023-02-08T02:21:25.590Z,46.20
2023-02-08T02:24:39.127Z,45.83
2023-02-08T02:27:34.526Z,46.53
2023-02-08T02:30:40.943Z,47.17
2023-02-08T02:33:44.731Z,45.53
2023-02-08T02:36:23.197Z,48.07
2023-02-08T02:39:03.299Z,47.43
2023-02-08T02:41:59.612Z,47.27
2023-02-08T02:44:39.202Z,49.17
2023-02-08T02:47:14.059Z,48.83
2023-02-08T02:49:51.443Z,48.93
2023-02-08T02:52:25.919Z,50.30
2023-02-08T02:54:56.383Z,50.17
2023-02-08T02:57:29.119Z,48.43
2023-02-08T02:59:59.420Z,51.27
2023-02-08T03:02:28.888Z,51.10
2023-02-08T03:04:59.013Z,53.03
2023-02-08T03:07:54.147Z,50.73
2023-02-08T03:10:53.585Z,53.00
2023-02-08T03:13:33.161Z,52.03
2023-02-08T03:16:17.123Z,52.20
2023-02-08T03:18:59.551Z,51.80
2023-02-08T03:21:39.723Z,54.87
2023-02-08T03:24:21.785Z,53.50
2023-02-08T03:26:55.366Z,54.60
2023-02-08T03:29:32.589Z,54.40
2023-02-08T03:32:04.499Z,55.17
2023-02-08T03:34:38.721Z,53.97
2023-02-08T03:37:14.120Z,53.23
2023-02-08T03:39:45.605Z,53.37
2023-02-08T03:42:18.384Z,53.23
2023-02-08T03:44:52.395Z,56.30
2023-02-08T03:47:24.359Z,55.50
2023-02-08T03:49:55.436Z,56.00
2023-02-08T03:52:26.255Z,55.07
2023-02-08T03:54:58.657Z,53.77
2023-02-08T03:57:29.778Z,57.30
2023-02-08T04:00:01.681Z,54.63
2023-02-08T04:02:45.355Z,57.47
2023-02-08T04:05:14.796Z,54.93
2023-02-08T04:07:44.332Z,56.00
2023-02-08T04:10:12.439Z,56.07
2023-02-08T04:12:40.890Z,53.37
2023-02-08T04:15:10.150Z,55.80
2023-02-08T04:17:38.154Z,58.50
2023-02-08T04:20:06.898Z,56.10
2023-02-08T04:22:35.046Z,55.67
2023-02-08T04:25:04.593Z,58.53
2023-02-08T04:27:32.741Z,61.03
2023-02-08T04:30:02.019Z,63.73
2023-02-08T04:32:30.195Z,60.23
2023-02-08T04:34:58.282Z,59.13
2023-02-08T04:37:26.425Z,58.47
2023-02-08T04:39:54.472Z,58.10
2023-02-08T04:42:24.044Z,56.17
2023-02-08T04:44:52.124Z,57.40
2023-02-08T04:47:20.168Z,58.47
2023-02-08T04:49:48.229Z,58.33
2023-02-08T04:52:16.358Z,57.73
2023-02-08T04:54:44.406Z,57.23
2023-02-08T04:57:14.684Z,59.60
2023-02-08T04:59:44.095Z,57.30
2023-02-08T05:02:12.198Z,56.20
2023-02-08T05:04:40.231Z,55.60
2023-02-08T05:07:08.453Z,58.37
2023-02-08T05:09:36.474Z,59.07
2023-02-08T05:12:04.806Z,58.27
2023-02-08T05:14:32.838Z,56.97
2023-02-08T05:17:02.355Z,54.73
2023-02-08T05:19:30.701Z,53.87
2023-02-08T05:21:58.857Z,54.63
2023-02-08T05:24:26.896Z,53.50
2023-02-08T05:26:55.056Z,56.60
2023-02-08T05:29:23.077Z,58.23
2023-02-08T05:31:51.239Z,57.23
2023-02-08T05:34:20.715Z,57.17
2023-02-08T05:36:48.874Z,58.73
2023-02-08T05:39:16.969Z,58.77
2023-02-08T05:41:45.063Z,56.17
2023-02-08T05:44:13.112Z,60.07
2023-02-08T05:46:41.335Z,60.07
2023-02-08T05:49:09.607Z,60.90
2023-02-08T05:51:39.215Z,63.30
2023-02-08T05:54:07.478Z,65.87
2023-02-08T05:56:35.884Z,67.23
2023-02-08T05:59:05.003Z,68.57
2023-02-08T06:01:33.064Z,73.93
2023-02-08T06:04:01.331Z,73.37
2023-02-08T06:06:29.698Z,82.23
2023-02-08T06:08:59.129Z,86.37
2023-02-08T06:11:28.084Z,84.70
2023-02-08T06:13:56.147Z,85.17
2023-02-08T06:16:24.320Z,86.60
2023-02-08T06:18:52.415Z,87.57
2023-02-08T06:21:20.457Z,83.80
2023-02-08T06:23:48.528Z,89.83
2023-02-08T06:26:17.994Z,83.23
2023-02-08T06:28:46.101Z,79.73
2023-02-08T06:31:14.215Z,85.57
2023-02-08T06:33:42.264Z,82.93
2023-02-08T06:36:10.652Z,83.37
2023-02-08T06:38:38.804Z,85.70
2023-02-08T06:41:07.065Z,86.60
2023-02-08T06:43:36.518Z,87.07
2023-02-08T06:46:08.579Z,86.30
2023-02-08T06:48:36.895Z,88.53
2023-02-08T06:51:05.599Z,85.10
2023-02-08T06:53:33.689Z,88.13
2023-02-08T06:56:01.718Z,89.13
2023-02-08T06:58:29.776Z,90.03
2023-02-08T07:00:59.216Z,87.27
2023-02-08T07:03:27.517Z,90.60
2023-02-08T07:06:04.440Z,87.13
2023-02-08T07:08:33.416Z,90.87
2023-02-08T07:11:01.466Z,89.77
2023-02-08T07:13:29.607Z,90.50
2023-02-08T07:15:58.986Z,93.63
2023-02-08T07:18:27.087Z,86.43
2023-02-08T07:20:55.198Z,82.30
2023-02-08T07:23:23.326Z,80.33
2023-02-08T07:25:58.777Z,83.23
2023-02-08T07:28:27.150Z,81.50
2023-02-08T07:30:55.265Z,78.77
2023-02-08T07:33:25.689Z,69.30
2023-02-08T07:35:53.998Z,61.60
2023-02-08T07:38:22.029Z,59.03
2023-02-08T07:40:50.111Z,58.57
2023-02-08T07:43:18.218Z,57.73
2023-02-08T07:45:56.041Z,58.53
2023-02-08T07:48:25.481Z,59.43
2023-02-08T07:50:53.527Z,55.23
2023-02-08T07:53:21.737Z,54.40
2023-02-08T07:55:49.771Z,55.43
2023-02-08T07:58:17.803Z,53.70
2023-02-08T08:00:45.829Z,54.90
2023-02-08T08:03:13.905Z,49.87
2023-02-08T08:05:44.021Z,52.93
2023-02-08T08:08:13.370Z,51.60
2023-02-08T08:10:42.812Z,52.63
2023-02-08T08:13:10.960Z,53.17
2023-02-08T08:15:40.321Z,53.50
2023-02-08T08:18:08.414Z,47.17
2023-02-08T08:20:36.525Z,48.73
2023-02-08T08:23:06.210Z,52.43
2023-02-08T08:25:34.302Z,52.03
2023-02-08T08:28:02.502Z,51.23
2023-02-08T08:30:31.021Z,51.47
2023-02-08T08:32:59.118Z,48.90
2023-02-08T08:35:27.194Z,49.87
2023-02-08T08:37:55.241Z,49.50
2023-02-08T08:40:25.297Z,46.90
2023-02-08T08:42:53.427Z,43.20
2023-02-08T08:45:21.495Z,45.47
2023-02-08T08:47:49.579Z,45.70
2023-02-08T08:50:17.664Z,46.67
2023-02-08T08:52:45.685Z,44.73
2023-02-08T08:55:13.744Z,43.07
2023-02-08T08:57:43.166Z,43.50
2023-02-08T09:00:12.687Z,42.97
2023-02-08T09:02:40.751Z,44.70
2023-02-08T09:05:09.292Z,45.43
2023-02-08T09:07:37.314Z,43.73
2023-02-08T09:10:05.922Z,42.93
2023-02-08T09:12:34.025Z,37.47
2023-02-08T09:15:03.638Z,38.67
2023-02-08T09:17:31.757Z,38.53
2023-02-08T09:19:59.815Z,35.47
2023-02-08T09:22:27.923Z,38.53
2023-02-08T09:24:56.009Z,36.20
2023-02-08T09:27:24.064Z,33.73
2023-02-08T09:29:52.134Z,32.47
2023-02-08T09:32:23.131Z,37.40
2023-02-08T09:34:51.295Z,36.43
2023-02-08T09:37:19.453Z,35.40
2023-02-08T09:39:47.487Z,35.60
2023-02-08T09:42:40.092Z,29.70
2023-02-08T09:45:28.048Z,28.60
2023-02-08T09:48:05.294Z,26.57
2023-02-08T09:50:36.342Z,26.80
2023-02-08T09:53:13.433Z,27.67
2023-02-08T09:55:45.268Z,28.40
2023-02-08T09:58:24.801Z,27.90
2023-02-08T10:00:54.450Z,28.37
2023-02-08T10:03:35.602Z,28.87
2023-02-08T10:06:04.997Z,26.07
2023-02-08T10:08:35.780Z,27.30
2023-02-08T10:11:17.030Z,26.73
2023-02-08T10:14:06.515Z,27.93
2023-02-08T10:16:50.605Z,28.47
2023-02-08T10:19:34.050Z,28.73
2023-02-08T10:22:14.960Z,28.90
2023-02-08T10:25:05.296Z,29.47
2023-02-08T10:27:44.054Z,29.13
2023-02-08T10:30:22.016Z,27.37
2023-02-08T10:33:00.170Z,27.93
2023-02-08T10:35:37.210Z,28.90
2023-02-08T10:38:25.261Z,30.40
2023-02-08T10:40:57.861Z,28.13
2023-02-08T10:43:36.470Z,29.03
2023-02-08T10:46:13.153Z,28.33
2023-02-08T10:49:04.955Z,28.67
2023-02-08T10:51:34.586Z,28.27
2023-02-08T10:54:02.706Z,27.17
2023-02-08T10:56:46.698Z,26.77
2023-02-08T10:59:25.086Z,27.67
2023-02-08T11:01:54.676Z,28.20
2023-02-08T11:04:22.854Z,27.10
2023-02-08T11:06:54.781Z,26.10
2023-02-08T11:09:26.747Z,25.57
2023-02-08T11:11:56.101Z,24.43
2023-02-08T11:14:40.963Z,26.03
2023-02-08T11:17:27.070Z,24.60
2023-02-08T11:19:55.312Z,24.40
2023-02-08T11:22:27.841Z,24.50
2023-02-08T11:24:59.217Z,22.83
2023-02-08T11:27:36.334Z,24.47
2023-02-08T11:30:21.388Z,24.07
2023-02-08T11:32:50.893Z,25.53
2023-02-08T11:35:23.389Z,24.37
2023-02-08T11:37:54.499Z,23.47
2023-02-08T11:40:25.822Z,24.40
2023-02-08T11:42:54.372Z,23.77
2023-02-08T11:45:25.573Z,25.47
2023-02-08T11:47:53.943Z,24.07
2023-02-08T11:50:26.421Z,24.43
2023-02-08T11:53:00.520Z,23.43
2023-02-08T11:55:31.377Z,24.27
2023-02-08T11:58:01.847Z,25.00
2023-02-08T12:00:31.953Z,25.43
2023-02-08T12:03:01.951Z,26.67
2023-02-08T12:05:41.642Z,26.27
2023-02-08T12:08:20.444Z,24.90
2023-02-08T12:11:13.236Z,26.73
2023-02-08T12:14:03.206Z,26.00
2023-02-08T12:16:49.899Z,25.13
2023-02-08T12:19:43.860Z,25.30
2023-02-08T12:22:18.012Z,23.57
2023-02-08T12:24:52.203Z,25.37
2023-02-08T12:27:33.544Z,25.80
2023-02-08T12:30:12.008Z,25.30
2023-02-08T12:32:58.682Z,25.67
2023-02-08T12:36:03.645Z,24.00
2023-02-08T12:39:19.014Z,23.63
2023-02-08T12:41:59.899Z,23.73
2023-02-08T12:44:36.762Z,22.80
2023-02-08T12:47:20.316Z,23.80
2023-02-08T12:50:00.853Z,26.60
2023-02-08T12:52:37.800Z,28.03
2023-02-08T12:55:16.180Z,26.17
2023-02-08T12:57:49.156Z,26.43
2023-02-08T13:00:22.997Z,26.10
2023-02-08T13:02:59.687Z,26.37
2023-02-08T13:05:32.797Z,24.73
2023-02-08T13:08:08.850Z,20.20
2023-02-08T13:10:40.714Z,21.30
2023-02-08T13:13:17.550Z,20.30
2023-02-08T13:15:50.513Z,20.23
2023-02-08T13:18:22.742Z,19.30
2023-02-08T13:20:54.790Z,19.57
2023-02-08T13:23:27.897Z,19.13
2023-02-08T13:25:59.919Z,19.13
2023-02-08T13:28:30.137Z,19.07
2023-02-08T13:31:03.646Z,18.93
2023-02-08T13:33:55.640Z,18.70
2023-02-08T13:36:32.282Z,17.83
2023-02-08T13:39:02.740Z,18.23
2023-02-08T13:41:33.096Z,16.53
2023-02-08T13:44:05.616Z,16.20
2023-02-08T13:46:39.681Z,16.20
2023-02-08T13:49:07.881Z,16.10
2023-02-08T13:52:03.484Z,16.77
2023-02-08T13:54:31.824Z,16.07
2023-02-08T13:57:00.129Z,17.10
2023-02-08T13:59:34.155Z,16.17
2023-02-08T14:02:30.716Z,14.37
2023-02-08T14:05:38.401Z,15.03
2023-02-08T14:08:09.073Z,14.03
2023-02-08T14:10:43.402Z,14.30
2023-02-08T14:13:28.668Z,14.53
2023-02-08T14:16:32.403Z,14.73
2023-02-08T14:19:02.913Z,14.30
2023-02-08T14:21:38.728Z,14.83
2023-02-08T14:24:10.151Z,14.83
2023-02-08T14:26:38.869Z,13.63
2023-02-08T14:29:08.049Z,14.53
2023-02-08T14:31:43.548Z,13.70
2023-02-08T14:34:27.835Z,14.47
2023-02-08T14:37:05.949Z,13.90
2023-02-08T14:39:37.449Z,15.87
2023-02-08T14:42:08.882Z,15.03
2023-02-08T14:45:05.826Z,15.47
2023-02-08T14:48:07.943Z,15.17
2023-02-08T14:50:43.545Z,14.57
2023-02-08T14:53:24.965Z,15.07
2023-02-08T14:55:57.761Z,14.87
2023-02-08T14:58:30.678Z,15.23
2023-02-08T15:01:03.148Z,14.47
2023-02-08T15:03:34.873Z,15.10
2023-02-08T15:06:35.979Z,15.20
2023-02-08T15:09:06.588Z,15.33
2023-02-08T15:11:36.508Z,14.27
2023-02-08T15:14:06.638Z,13.40
2023-02-08T15:16:37.168Z,13.70
2023-02-08T15:19:08.907Z,14.37
2023-02-08T15:21:38.980Z,13.20
2023-02-08T15:24:15.858Z,13.10
2023-02-08T15:26:48.562Z,13.03
2023-02-08T15:29:24.599Z,13.40
2023-02-08T15:31:55.698Z,13.40
2023-02-08T15:34:27.452Z,13.20
2023-02-08T15:37:00.561Z,13.60
2023-02-08T15:39:36.026Z,15.27
2023-02-08T15:42:04.141Z,14.57
2023-02-08T15:44:35.057Z,16.27
2023-02-08T15:47:06.049Z,15.53
2023-02-08T15:49:37.966Z,14.20
2023-02-08T15:52:08.624Z,17.93
2023-02-08T15:54:36.826Z,17.23
2023-02-08T15:57:10.490Z,19.87
2023-02-08T15:59:41.138Z,23.10
2023-02-08T16:02:25.340Z,26.40
2023-02-08T16:04:55.066Z,24.03
2023-02-08T16:07:30.120Z,24.33
2023-02-08T16:09:58.905Z,24.23
2023-02-08T16:12:29.077Z,24.53
2023-02-08T16:14:57.430Z,21.73
2023-02-08T16:17:37.700Z,23.47
2023-02-08T16:20:30.079Z,24.53
2023-02-08T16:23:01.766Z,25.80
2023-02-08T16:25:43.349Z,28.20
2023-02-08T16:28:26.130Z,29.93
2023-02-08T16:30:54.908Z,29.03
2023-02-08T16:33:23.425Z,54.10
2023-02-08T16:35:53.261Z,32.20
2023-02-08T16:38:24.115Z,34.63
2023-02-08T16:40:53.781Z,36.37
2023-02-08T16:43:28.711Z,36.30
2023-02-08T16:46:30.180Z,39.07
2023-02-08T16:48:59.031Z,42.77
2023-02-08T16:51:31.764Z,36.77
2023-02-08T16:54:07.067Z,34.87
2023-02-08T16:56:36.298Z,36.13
2023-02-08T16:59:04.839Z,39.40
2023-02-08T17:01:33.512Z,37.73
2023-02-08T17:04:01.776Z,39.07
2023-02-08T17:06:33.368Z,40.30
2023-02-08T17:09:03.495Z,42.73
2023-02-08T17:11:32.677Z,42.57
2023-02-08T17:14:00.965Z,42.43
2023-02-08T17:16:31.329Z,41.23
2023-02-08T17:19:00.534Z,44.27
2023-02-08T17:21:29.355Z,40.63
2023-02-08T17:23:59.568Z,42.77
2023-02-08T17:26:30.628Z,42.93
2023-02-08T17:29:00.223Z,42.93
2023-02-08T17:31:29.737Z,40.57
2023-02-08T17:34:05.196Z,40.07
2023-02-08T17:36:35.588Z,39.67
2023-02-08T17:39:06.357Z,42.43
2023-02-08T17:41:34.535Z,45.80
2023-02-08T17:44:02.668Z,42.93
2023-02-08T17:46:31.705Z,43.93
2023-02-08T17:49:01.637Z,47.57
2023-02-08T17:51:30.084Z,47.93
2023-02-08T17:53:58.354Z,46.27
2023-02-08T17:56:32.556Z,47.57
2023-02-08T17:59:03.714Z,49.27
2023-02-08T18:01:33.732Z,44.03
2023-02-08T18:04:04.727Z,43.10
2023-02-08T18:06:33.756Z,48.97
2023-02-08T18:09:01.960Z,48.80
2023-02-08T18:11:31.510Z,48.47
2023-02-08T18:14:00.637Z,49.80
2023-02-08T18:16:29.273Z,51.17
2023-02-08T18:18:59.223Z,48.53
2023-02-08T18:21:27.715Z,54.13
2023-02-08T18:23:56.472Z,54.30
2023-02-08T18:26:26.281Z,50.37
2023-02-08T18:28:55.894Z,50.70
2023-02-08T18:31:25.453Z,48.67
2023-02-08T18:33:54.227Z,49.97
2023-02-08T18:36:23.318Z,43.77
2023-02-08T18:38:53.381Z,43.20
2023-02-08T18:41:23.797Z,40.70
2023-02-08T18:43:53.412Z,44.87
2023-02-08T18:46:24.902Z,47.47
2023-02-08T18:48:54.129Z,48.57
2023-02-08T18:51:24.714Z,52.83
2023-02-08T18:53:55.260Z,56.77
2023-02-08T18:56:26.577Z,61.20
2023-02-08T18:58:56.474Z,67.30
2023-02-08T19:01:26.258Z,65.93
2023-02-08T19:03:54.510Z,61.73
2023-02-08T19:06:25.758Z,53.17
2023-02-08T19:08:58.494Z,52.00
2023-02-08T19:11:29.355Z,49.47
2023-02-08T19:13:59.295Z,48.47
2023-02-08T19:16:29.127Z,51.83
2023-02-08T19:18:57.624Z,47.90
2023-02-08T19:21:25.728Z,47.60
2023-02-08T19:23:54.627Z,49.10
2023-02-08T19:26:24.678Z,51.80
2023-02-08T19:28:54.529Z,52.10
2023-02-08T19:31:24.817Z,53.50
2023-02-08T19:33:58.573Z,57.80
2023-02-08T19:36:29.676Z,59.60
2023-02-08T19:38:58.676Z,61.47
2023-02-08T19:41:28.873Z,59.83
2023-02-08T19:43:57.010Z,59.20
2023-02-08T19:46:27.652Z,57.80
2023-02-08T19:49:00.303Z,62.63
2023-02-08T19:51:29.005Z,66.90
2023-02-08T19:53:58.191Z,64.13
2023-02-08T19:56:26.353Z,66.57
2023-02-08T19:58:54.958Z,63.27
2023-02-08T20:01:24.308Z,61.53
2023-02-08T20:03:55.006Z,63.07
2023-02-08T20:06:26.547Z,58.80
2023-02-08T20:08:55.185Z,59.77
2023-02-08T20:11:25.958Z,61.50
2023-02-08T20:13:54.839Z,59.17
2023-02-08T20:16:23.534Z,59.40
2023-02-08T20:18:52.349Z,62.87
2023-02-08T20:21:21.100Z,60.37
2023-02-08T20:23:51.625Z,64.37
2023-02-08T20:26:22.800Z,65.67
2023-02-08T20:28:53.107Z,66.77
2023-02-08T20:31:24.280Z,70.30
2023-02-08T20:33:53.034Z,66.20
2023-02-08T20:36:22.720Z,72.33
2023-02-08T20:38:53.762Z,77.83
2023-02-08T20:41:23.003Z,82.27
2023-02-08T20:43:51.499Z,86.20
2023-02-08T20:46:23.057Z,99.80
2023-02-08T20:48:52.256Z,122.90
2023-02-08T20:51:23.353Z,145.90
2023-02-08T20:53:53.866Z,118.20
2023-02-08T20:56:23.977Z,100.00
2023-02-08T20:58:53.680Z,97.10
2023-02-08T21:01:28.108Z,99.23
2023-02-08T21:03:57.785Z,100.37
2023-02-08T21:06:29.466Z,96.47
2023-02-08T21:09:00.608Z,98.27
2023-02-08T21:11:30.992Z,105.37
2023-02-08T21:14:00.026Z,101.23
2023-02-08T21:16:29.028Z,101.17
2023-02-08T21:18:57.520Z,96.03
2023-02-08T21:21:26.335Z,98.30
2023-02-08T21:23:56.762Z,98.70
2023-02-08T21:26:27.159Z,109.47
2023-02-08T21:28:56.663Z,108.73
2023-02-08T21:31:25.558Z,113.93
2023-02-08T21:33:54.401Z,109.50
2023-02-08T21:36:25.208Z,101.10
2023-02-08T21:38:53.406Z,101.93
2023-02-08T21:41:23.174Z,103.03
2023-02-08T21:43:55.061Z,100.47
2023-02-08T21:46:24.815Z,103.50
2023-02-08T21:49:10.798Z,104.10
2023-02-08T21:51:56.960Z,98.47
2023-02-08T21:54:45.853Z,109.47
2023-02-08T21:57:18.697Z,102.03
2023-02-08T21:59:49.187Z,102.53
2023-02-08T22:02:23.452Z,98.67
2023-02-08T22:05:09.843Z,92.37
2023-02-08T22:07:43.273Z,87.27
2023-02-08T22:10:12.416Z,88.70
2023-02-08T22:12:41.966Z,93.87
2023-02-08T22:15:13.005Z,91.53
2023-02-08T22:17:41.076Z,86.50
2023-02-08T22:20:11.431Z,95.70
2023-02-08T22:22:39.753Z,92.17
2023-02-08T22:25:08.093Z,94.30
2023-02-08T22:27:36.284Z,89.30
2023-02-08T22:30:04.627Z,91.87
2023-02-08T22:32:34.115Z,85.30
2023-02-08T22:35:02.313Z,82.57
2023-02-08T22:37:30.372Z,86.93
2023-02-08T22:39:58.538Z,82.73
2023-02-08T22:42:27.924Z,85.97
2023-02-08T22:44:56.600Z,81.17
2023-02-08T22:47:25.104Z,87.87
2023-02-08T22:49:57.802Z,82.83
2023-02-08T22:52:26.031Z,84.33
2023-02-08T22:54:54.735Z,80.67
2023-02-08T22:57:22.801Z,77.37
2023-02-08T22:59:50.861Z,76.10
2023-02-08T23:02:18.986Z,79.70
2023-02-08T23:04:47.020Z,82.27
2023-02-08T23:07:16.794Z,83.47
2023-02-08T23:09:44.842Z,81.40
2023-02-08T23:12:12.982Z,78.90
2023-02-08T23:14:41.125Z,81.50
2023-02-08T23:17:09.245Z,77.67
2023-02-08T23:19:37.311Z,77.10
2023-02-08T23:22:05.465Z,86.07
2023-02-08T23:24:35.180Z,84.57
2023-02-08T23:27:03.280Z,89.53
2023-02-08T23:29:31.354Z,83.53
2023-02-08T23:31:59.494Z,87.30
2023-02-08T23:34:28.425Z,89.93
2023-02-08T23:36:56.485Z,88.57
2023-02-08T23:39:24.582Z,95.40
2023-02-08T23:41:56.474Z,96.60
2023-02-08T23:44:26.590Z,93.03
2023-02-08T23:46:54.743Z,91.80
2023-02-08T23:49:22.865Z,96.47
2023-02-08T23:51:50.909Z,97.13
2023-02-08T23:54:19.127Z,92.53
2023-02-08T23:56:47.146Z,93.70
2023-02-08T23:59:16.612Z,92.77
